Volga, SD

9:15 AM CDT on August 21, 2014 (GMT -0500)
KSDVOLGA2 | Change Station
CLOSE
Current Station
Personal Weather Station
Location: Volga, SD
Elevation: 1655 ft
Nearby Weather Stations

Elev 1655 ft 44.32 °N, 96.92 °W | Updated 3 minutes ago

Scattered Clouds
Scattered Clouds
75.7 °F
Feels Like 77 °F
N
2.0
Wind Variable Wind from East
Gusts 4.0 mph

Today
High -- | Low -- °F
--% Chance of Precip.
Yesterday
High -- | Low -- °F
Precip. -- in
6:37 AM 8:22 PM
Waning Crescent, 14% visible
Pressure 29.78 in
Visibility 10.0 miles
Clouds Scattered Clouds 400 ft
Heat Index 77 °F
Dew Point 69 °F
Humidity 80%
Rainfall 0.00 in
Snow Depth Not available.
UV 1 out of 12
Pollen 4.20 out of 12
Air Quality Not available.
Flu Activity Not available.
METAR KMDS 211350Z AUTO 18004KT 10SM SCT004 23/23 A2978 RMK AO2

More Conditions Fewer Conditions

Pressure 29.78 in
Visibility 10.0 miles
Clouds Scattered Clouds 400 ft
Heat Index 77 °F
Dew Point 69 °F
Humidity 80%
Rainfall 0.00 in
Snow Depth Not available.
UV 1 out of 12
Pollen 4.20 out of 12
Air Quality Not available.
Flu Activity Not available.
METAR KMDS 211350Z AUTO 18004KT 10SM SCT004 23/23 A2978 RMK AO2

More Conditions Fewer Conditions

10-Day Weather Forecast

Almanac

Astronomy

Aug. 21, 2014 Rise Set
Actual Time 6:37 AM CDT 8:22 PM CDT
Civil Twilight 6:06 AM CDT 8:53 PM CDT
Nautical Twilight 5:29 AM CDT 9:31 PM CDT
Astronomical Twilight 4:48 AM CDT 10:11 PM CDT
Moon 3:05 AM CDT 5:55 PM CDT
Length of Visible Light 14h 46m
Length of Day
13h 45m
Tomorrow will be 2m 49s shorter.
Waning Crescent, 14% of the Moon is Illuminated
Today
Waning Crescent
Aug 25
New
Sep 2
First Quarter
Sep 8
Full
Sep 15
Last Quarter

Today's Extremes

State Highs State Lows

Community

WunderPhotos

Upload Photos

1,745,921 photos uploaded!

WunderBlogs® & News

Nearby

Snow Depth

Station Depth Elevation
Blind Park 0 in 6890 ft

Earthquake Activity

City Distance Mag. Time & Date
No recent earthquake activity has been reported nearby.
Minimum magnitude displayed is 2.5.

Coastal Water Temperatures

Place Temperature
No Stations Reporting

Nearby Weather Stations